Time;durP1;ratioP1;P1;durP2;ratioP2;P2;SDS_P1;SDS_P2;PMS_P1;PMS_P2;Temp;Humidity;BMP_temperature;BMP_pressure;BME280_temperature;BME280_humidity;BME280_pressure;Samples;Min_cycle;Max_cycle;Signal;HPM_P1;HPM_P2
2022/08/29 00:00:14;;;;;;;;;;;;;;;;;;5051703;28;19932;-62
2022/08/29 00:02:40;;;;;;;;;;;;;;;;;;5069618;28;19939;-62
2022/08/29 00:05:07;;;;;;;;;;;;;;;;;;5072145;28;20045;-62
2022/08/29 00:07:34;;;;;;;;;;;;;;;;;;5072193;28;20392;-61
2022/08/29 00:10:03;;;;;;;;;;;;;;;;;;5071837;28;19931;-62
2022/08/29 00:12:30;;;;;;;;;;;;;;;;;;5072055;28;20039;-62
2022/08/29 00:14:56;;;;;;;;;;;;;;;;;;5071716;28;19925;-62
2022/08/29 00:17:23;;;;;;;;;;;;;;;;;;5071899;28;19929;-62
2022/08/29 00:19:50;;;;;;;;;;;;;;;;;;5072296;28;20277;-62
2022/08/29 00:22:16;;;;;;;;;;;;;;;;;;5075280;28;19924;-62
2022/08/29 00:24:43;;;;;;;;;;;;;;;;;;5105477;22;21371;-76
2022/08/29 00:27:10;;;;;;;;;;;;;;;;;;5060728;28;19924;-78
2022/08/29 00:29:37;;;;;;;;;;;;;;;;;;5059164;28;20004;-77
2022/08/29 00:32:03;;;;;;;;;;;;;;;;;;5058720;28;19925;-77
2022/08/29 00:34:30;;;;;;;;;;;;;;;;;;5057750;28;19931;-77
2022/08/29 00:36:56;;;;;;;;;;;;;;;;;;5057580;28;19925;-77
2022/08/29 00:39:23;;;;;;;;;;;;;;;;;;5059425;28;19939;-77
2022/08/29 00:41:49;;;;;;;;;;;;;;;;;;5064015;28;19932;-76
2022/08/29 00:44:17;;;;;;;;;;;;;;;;;;5060837;28;19931;-77
2022/08/29 00:46:47;;;;;;;;;;;;;;;;;;5061514;28;19964;-76
2022/08/29 00:49:17;;;;;;;;;;;;;;;;;;5061978;28;19960;-77
2022/08/29 00:51:45;;;;;;;;;;;;;;;;;;5060531;28;19925;-76
2022/08/29 00:54:11;;;;;;;;;;;;;;;;;;5060677;28;20015;-78
2022/08/29 00:56:39;;;;;;;;;;;;;;;;;;5060434;28;19992;-77
2022/08/29 00:59:07;;;;;;;;;;;;;;;;;;5060944;28;19967;-77
2022/08/29 01:01:35;;;;;;;;;;;;;;;;;;5068620;28;19931;-77
2022/08/29 01:04:01;;;;;;;;;;;;;;;;;;5082558;28;19930;-77
2022/08/29 01:06:28;;;;;;;;;;;;;;;;;;5077937;28;20359;-78
2022/08/29 01:08:55;;;;;;;;;;;;;;;;;;5078771;28;19967;-79
2022/08/29 01:14:06;;;;;;;;;;;;;;;;;;5080032;28;19931;-78
2022/08/29 01:16:33;;;;;;;;;;;;;;;;;;5079190;28;19975;-78
2022/08/29 01:19:03;;;;;;;;;;;;;;;;;;5079110;28;20038;-78
2022/08/29 01:21:34;;;;;;;;;;;;;;;;;;5079912;28;19984;-78
2022/08/29 01:24:04;;;;;;;;;;;;;;;;;;5080841;28;19951;-77
2022/08/29 01:26:32;;;;;;;;;;;;;;;;;;5080746;28;19968;-78
2022/08/29 01:28:59;;;;;;;;;;;;;;;;;;5079547;28;19992;-77
2022/08/29 01:31:26;;;;;;;;;;;;;;;;;;5078823;28;20018;-79
2022/08/29 01:33:55;;;;;;;;;;;;;;;;;;5081519;28;19935;-77
2022/08/29 01:36:23;;;;;;;;;;;;;;;;;;5086695;28;19924;-79
2022/08/29 01:38:50;;;;;;;;;;;;;;;;;;5085368;28;19925;-79
2022/08/29 01:41:17;;;;;;;;;;;;;;;;;;5084972;28;19931;-77
2022/08/29 01:43:47;;;;;;;;;;;;;;;;;;5081315;28;20012;-79
2022/08/29 01:46:15;;;;;;;;;;;;;;;;;;5079567;28;19924;-77
2022/08/29 01:48:44;;;;;;;;;;;;;;;;;;5076659;28;19966;-78
2022/08/29 01:51:11;;;;;;;;;;;;;;;;;;5077295;28;20398;-78
2022/08/29 01:53:37;;;;;;;;;;;;;;;;;;5078465;28;19981;-78
2022/08/29 01:56:08;;;;;;;;;;;;;;;;;;5078085;28;19924;-78
2022/08/29 01:58:35;;;;;;;;;;;;;;;;;;5085348;28;19947;-76
2022/08/29 02:01:03;;;;;;;;;;;;;;;;;;5097321;28;19963;-78
2022/08/29 02:03:29;;;;;;;;;;;;;;;;;;5099182;28;19912;-77
2022/08/29 02:05:59;;;;;;;;;;;;;;;;;;5084920;28;19924;-79
2022/08/29 02:08:25;;;;;;;;;;;;;;;;;;5079828;28;20320;-79
2022/08/29 02:10:51;;;;;;;;;;;;;;;;;;5078990;28;20011;-80
2022/08/29 02:13:18;;;;;;;;;;;;;;;;;;5076712;28;20365;-79
2022/08/29 02:15:44;;;;;;;;;;;;;;;;;;5076472;28;19924;-78
2022/08/29 02:18:12;;;;;;;;;;;;;;;;;;5074223;28;20018;-78
2022/08/29 02:20:39;;;;;;;;;;;;;;;;;;5076115;28;20004;-79
2022/08/29 02:23:05;;;;;;;;;;;;;;;;;;5077323;28;19960;-77
2022/08/29 02:25:46;;;;;;;;;;;;;;;;;;5072907;28;19976;-79
2022/08/29 02:28:13;;;;;;;;;;;;;;;;;;5073006;28;20428;-78
2022/08/29 02:30:40;;;;;;;;;;;;;;;;;;5072559;28;20291;-78
2022/08/29 02:33:07;;;;;;;;;;;;;;;;;;5072548;28;20403;-78
2022/08/29 02:35:35;;;;;;;;;;;;;;;;;;5072419;28;20399;-78
2022/08/29 02:38:02;;;;;;;;;;;;;;;;;;5072437;28;20429;-78
2022/08/29 02:40:28;;;;;;;;;;;;;;;;;;5077087;28;19978;-78
2022/08/29 02:42:55;;;;;;;;;;;;;;;;;;5076129;28;19924;-78
2022/08/29 02:45:22;;;;;;;;;;;;;;;;;;5072405;28;20015;-77
2022/08/29 02:47:48;;;;;;;;;;;;;;;;;;5072318;28;20019;-79
2022/08/29 02:50:15;;;;;;;;;;;;;;;;;;5072188;28;19924;-78
2022/08/29 02:52:43;;;;;;;;;;;;;;;;;;5073315;28;20020;-79
2022/08/29 02:55:11;;;;;;;;;;;;;;;;;;5073627;28;20015;-78
2022/08/29 02:57:38;;;;;;;;;;;;;;;;;;5074036;28;19928;-78
2022/08/29 03:00:05;;;;;;;;;;;;;;;;;;5074949;28;19925;-79
2022/08/29 03:02:32;;;;;;;;;;;;;;;;;;5061046;28;20260;-79
2022/08/29 03:04:58;;;;;;;;;;;;;;;;;;5065814;28;19971;-80
2022/08/29 03:07:25;;;;;;;;;;;;;;;;;;5068082;28;19975;-78
2022/08/29 03:09:53;;;;;;;;;;;;;;;;;;5066915;28;19925;-79
2022/08/29 03:12:19;;;;;;;;;;;;;;;;;;5062925;28;19964;-77
2022/08/29 03:14:46;;;;;;;;;;;;;;;;;;5056870;28;19924;-80
2022/08/29 03:17:12;;;;;;;;;;;;;;;;;;5058238;28;19960;-80
2022/08/29 03:19:39;;;;;;;;;;;;;;;;;;5058422;28;20371;-79
2022/08/29 03:22:05;;;;;;;;;;;;;;;;;;5061265;28;19924;-80
2022/08/29 03:24:34;;;;;;;;;;;;;;;;;;5001123;28;1792771;-78
2022/08/29 03:27:01;;;;;;;;;;;;;;;;;;5053027;28;19979;-79
2022/08/29 03:29:28;;;;;;;;;;;;;;;;;;5057357;28;19932;-79
2022/08/29 03:31:57;;;;;;;;;;;;;;;;;;5056943;28;20011;-80
2022/08/29 03:34:23;;;;;;;;;;;;;;;;;;5057099;28;20376;-79
2022/08/29 03:36:49;;;;;;;;;;;;;;;;;;5057695;28;19985;-80
2022/08/29 03:39:16;;;;;;;;;;;;;;;;;;5057085;28;19932;-80
2022/08/29 03:41:43;;;;;;;;;;;;;;;;;;5057410;28;19975;-79
2022/08/29 03:44:11;;;;;;;;;;;;;;;;;;5058086;28;19925;-78
2022/08/29 03:46:38;;;;;;;;;;;;;;;;;;5058253;28;19988;-80
2022/08/29 03:49:06;;;;;;;;;;;;;;;;;;5057088;28;20415;-78
2022/08/29 03:51:32;;;;;;;;;;;;;;;;;;5058030;28;19929;-80
2022/08/29 03:53:59;;;;;;;;;;;;;;;;;;5055408;28;19924;-79
2022/08/29 03:56:25;;;;;;;;;;;;;;;;;;5056550;28;19924;-78
2022/08/29 03:58:52;;;;;;;;;;;;;;;;;;5057146;28;20350;-78
2022/08/29 04:01:21;;;;;;;;;;;;;;;;;;5057357;28;20003;-77
2022/08/29 04:03:47;;;;;;;;;;;;;;;;;;5057269;28;19929;-78
2022/08/29 04:06:14;;;;;;;;;;;;;;;;;;5056715;28;19976;-76
2022/08/29 04:08:41;;;;;;;;;;;;;;;;;;5057235;28;19931;-78
2022/08/29 04:11:09;;;;;;;;;;;;;;;;;;5056753;28;19931;-78
2022/08/29 04:13:35;;;;;;;;;;;;;;;;;;5061244;28;20389;-77
2022/08/29 04:16:08;;;;;;;;;;;;;;;;;;5056618;28;20016;-79
2022/08/29 04:18:36;;;;;;;;;;;;;;;;;;5057267;28;19925;-78
2022/08/29 04:21:04;;;;;;;;;;;;;;;;;;5056543;28;19925;-77
2022/08/29 04:23:30;;;;;;;;;;;;;;;;;;5057543;28;20401;-78
2022/08/29 04:25:57;;;;;;;;;;;;;;;;;;5062085;28;19968;-79
2022/08/29 04:28:23;;;;;;;;;;;;;;;;;;5061357;28;19986;-79
2022/08/29 04:30:51;;;;;;;;;;;;;;;;;;5060858;28;19932;-77
2022/08/29 04:33:18;;;;;;;;;;;;;;;;;;5061013;28;20062;-80
2022/08/29 04:35:45;;;;;;;;;;;;;;;;;;5064756;28;19952;-80
2022/08/29 04:38:12;;;;;;;;;;;;;;;;;;5063537;28;19967;-79
2022/08/29 04:40:41;;;;;;;;;;;;;;;;;;5061073;28;19953;-79
2022/08/29 04:43:07;;;;;;;;;;;;;;;;;;5062523;28;19975;-79
2022/08/29 04:45:34;;;;;;;;;;;;;;;;;;5058559;28;19955;-78
2022/08/29 04:48:01;;;;;;;;;;;;;;;;;;5058390;28;19931;-78
2022/08/29 04:50:27;;;;;;;;;;;;;;;;;;5055350;28;20019;-79
2022/08/29 04:52:55;;;;;;;;;;;;;;;;;;5055451;28;19971;-78
2022/08/29 04:55:23;;;;;;;;;;;;;;;;;;5055460;28;19971;-78
2022/08/29 04:57:50;;;;;;;;;;;;;;;;;;5057982;28;20024;-79
2022/08/29 05:00:18;;;;;;;;;;;;;;;;;;5057196;28;19925;-80
2022/08/29 05:02:45;;;;;;;;;;;;;;;;;;5078929;28;19972;-80
2022/08/29 05:05:13;;;;;;;;;;;;;;;;;;5077772;28;19977;-79
2022/08/29 05:07:41;;;;;;;;;;;;;;;;;;5074060;28;19924;-78
2022/08/29 05:10:11;;;;;;;;;;;;;;;;;;5075846;28;19925;-79
2022/08/29 05:12:38;;;;;;;;;;;;;;;;;;5077381;28;19925;-78
2022/08/29 05:15:05;;;;;;;;;;;;;;;;;;5075026;28;20410;-77
2022/08/29 05:17:32;;;;;;;;;;;;;;;;;;5074948;28;20014;-77
2022/08/29 05:19:58;;;;;;;;;;;;;;;;;;5075125;28;20011;-79
2022/08/29 05:22:25;;;;;;;;;;;;;;;;;;5074855;28;20003;-78
2022/08/29 05:24:52;;;;;;;;;;;;;;;;;;5075077;28;19924;-77
2022/08/29 05:27:21;;;;;;;;;;;;;;;;;;5076022;28;19924;-78
2022/08/29 05:29:48;;;;;;;;;;;;;;;;;;5087326;28;19964;-78
2022/08/29 05:32:16;;;;;;;;;;;;;;;;;;5091480;28;19935;-77
2022/08/29 05:34:43;;;;;;;;;;;;;;;;;;5094229;28;19951;-80
2022/08/29 05:37:10;;;;;;;;;;;;;;;;;;5097410;28;19924;-78
2022/08/29 05:39:38;;;;;;;;;;;;;;;;;;5096716;28;19951;-77
2022/08/29 05:42:05;;;;;;;;;;;;;;;;;;5097526;28;19925;-78
2022/08/29 05:44:34;;;;;;;;;;;;;;;;;;5086315;28;20342;-78
2022/08/29 05:47:02;;;;;;;;;;;;;;;;;;5079786;28;19924;-80
2022/08/29 05:49:28;;;;;;;;;;;;;;;;;;5079513;28;19947;-79
2022/08/29 05:51:55;;;;;;;;;;;;;;;;;;5078102;28;19931;-77
2022/08/29 05:54:23;;;;;;;;;;;;;;;;;;5074513;28;19986;-78
2022/08/29 05:56:50;;;;;;;;;;;;;;;;;;5074288;28;19979;-77
2022/08/29 05:59:16;;;;;;;;;;;;;;;;;;5074180;28;19990;-76
2022/08/29 06:01:46;;;;;;;;;;;;;;;;;;5074184;28;20007;-77
2022/08/29 06:04:12;;;;;;;;;;;;;;;;;;5074945;28;19925;-78
2022/08/29 06:06:39;;;;;;;;;;;;;;;;;;5075222;28;19986;-77
2022/08/29 06:09:06;;;;;;;;;;;;;;;;;;5078324;28;19972;-81
2022/08/29 06:11:33;;;;;;;;;;;;;;;;;;5079448;28;20401;-80
2022/08/29 06:14:00;;;;;;;;;;;;;;;;;;5079531;28;19925;-80
2022/08/29 06:16:28;;;;;;;;;;;;;;;;;;5079608;28;19924;-80
2022/08/29 06:18:56;;;;;;;;;;;;;;;;;;5079524;28;19924;-79
2022/08/29 06:21:23;;;;;;;;;;;;;;;;;;5088552;28;19925;-77
2022/08/29 06:23:50;;;;;;;;;;;;;;;;;;5086307;28;20337;-78
2022/08/29 06:26:18;;;;;;;;;;;;;;;;;;5099917;22;19928;-78
2022/08/29 06:28:45;;;;;;;;;;;;;;;;;;5094723;28;19931;-78
2022/08/29 06:31:12;;;;;;;;;;;;;;;;;;5094800;28;19931;-78
2022/08/29 06:33:39;;;;;;;;;;;;;;;;;;5096309;28;20010;-78
2022/08/29 06:36:07;;;;;;;;;;;;;;;;;;5096709;28;19924;-78
2022/08/29 06:38:34;;;;;;;;;;;;;;;;;;5095083;28;19971;-79
2022/08/29 06:41:02;;;;;;;;;;;;;;;;;;5101006;28;19975;-79
2022/08/29 06:43:28;;;;;;;;;;;;;;;;;;5102858;28;19971;-77
2022/08/29 06:45:54;;;;;;;;;;;;;;;;;;5099254;28;20037;-77
2022/08/29 06:48:21;;;;;;;;;;;;;;;;;;5099350;28;19987;-77
2022/08/29 06:50:47;;;;;;;;;;;;;;;;;;5099415;28;19953;-78
2022/08/29 06:53:15;;;;;;;;;;;;;;;;;;5097787;28;19924;-79
2022/08/29 06:55:42;;;;;;;;;;;;;;;;;;5095668;28;20026;-77
2022/08/29 06:58:08;;;;;;;;;;;;;;;;;;5096318;28;20018;-78
2022/08/29 07:00:34;;;;;;;;;;;;;;;;;;5095794;28;20010;-79
2022/08/29 07:03:01;;;;;;;;;;;;;;;;;;5095931;28;19979;-79
2022/08/29 07:05:28;;;;;;;;;;;;;;;;;;5095713;28;19988;-79
2022/08/29 07:07:54;;;;;;;;;;;;;;;;;;5095928;28;19924;-77
2022/08/29 07:10:22;;;;;;;;;;;;;;;;;;5095101;28;19947;-79
2022/08/29 07:12:48;;;;;;;;;;;;;;;;;;5094876;28;20010;-78
2022/08/29 07:15:15;;;;;;;;;;;;;;;;;;5096287;28;19964;-78
2022/08/29 07:17:41;;;;;;;;;;;;;;;;;;5095563;28;20007;-79
2022/08/29 07:20:08;;;;;;;;;;;;;;;;;;5094943;28;20375;-79
2022/08/29 07:22:35;;;;;;;;;;;;;;;;;;5095870;28;19924;-78
2022/08/29 07:25:01;;;;;;;;;;;;;;;;;;5095832;28;20020;-79
2022/08/29 07:27:29;;;;;;;;;;;;;;;;;;5095968;28;20325;-80
2022/08/29 07:29:56;;;;;;;;;;;;;;;;;;5099431;28;20016;-79
2022/08/29 07:32:22;;;;;;;;;;;;;;;;;;5103560;28;20003;-78
2022/08/29 07:34:49;;;;;;;;;;;;;;;;;;5100357;28;20286;-80
2022/08/29 07:37:15;;;;;;;;;;;;;;;;;;5099556;28;20382;-77
2022/08/29 07:39:41;;;;;;;;;;;;;;;;;;5101500;28;19987;-78
2022/08/29 07:42:08;;;;;;;;;;;;;;;;;;5103113;28;20003;-78
2022/08/29 07:44:35;;;;;;;;;;;;;;;;;;5103080;28;19924;-78
2022/08/29 07:47:02;;;;;;;;;;;;;;;;;;5099269;28;20334;-79
2022/08/29 07:49:30;;;;;;;;;;;;;;;;;;5099062;28;19928;-78
2022/08/29 07:51:57;;;;;;;;;;;;;;;;;;5099997;28;20014;-80
2022/08/29 07:54:24;;;;;;;;;;;;;;;;;;5097299;28;20023;-78
2022/08/29 07:56:51;;;;;;;;;;;;;;;;;;5095933;28;19928;-78
2022/08/29 07:59:18;;;;;;;;;;;;;;;;;;5095939;28;20035;-78
2022/08/29 08:01:46;;;;;;;;;;;;;;;;;;5096017;28;20012;-77
2022/08/29 08:04:13;;;;;;;;;;;;;;;;;;5096010;28;20038;-76
2022/08/29 08:06:40;;;;;;;;;;;;;;;;;;5097755;28;19986;-79
2022/08/29 08:09:07;;;;;;;;;;;;;;;;;;5099145;28;20015;-79
2022/08/29 08:11:35;;;;;;;;;;;;;;;;;;5099164;28;19924;-79
2022/08/29 08:14:01;;;;;;;;;;;;;;;;;;5099418;28;20413;-79
2022/08/29 08:16:28;;;;;;;;;;;;;;;;;;5098453;28;20381;-79
2022/08/29 08:18:57;;;;;;;;;;;;;;;;;;5098697;28;19991;-79
2022/08/29 08:21:24;;;;;;;;;;;;;;;;;;5098509;28;19931;-79
2022/08/29 08:23:51;;;;;;;;;;;;;;;;;;5099360;28;19924;-79
2022/08/29 08:26:17;;;;;;;;;;;;;;;;;;5098539;28;20468;-78
2022/08/29 08:28:44;;;;;;;;;;;;;;;;;;5098817;28;20019;-78
2022/08/29 08:31:11;;;;;;;;;;;;;;;;;;5099852;28;20004;-79
2022/08/29 08:33:38;;;;;;;;;;;;;;;;;;5098938;28;19974;-79
2022/08/29 08:36:12;;;;;;;;;;;;;;;;;;5098386;28;19974;-80
2022/08/29 08:38:38;;;;;;;;;;;;;;;;;;5098942;28;19991;-81
2022/08/29 08:41:09;;;;;;;;;;;;;;;;;;5098464;28;19963;-80
2022/08/29 08:43:43;;;;;;;;;;;;;;;;;;5098835;28;20060;-78
2022/08/29 08:46:09;;;;;;;;;;;;;;;;;;5097202;28;20449;-78
2022/08/29 08:48:37;;;;;;;;;;;;;;;;;;5095935;28;19985;-78
2022/08/29 08:51:06;;;;;;;;;;;;;;;;;;5095271;28;20147;-77
2022/08/29 08:53:36;;;;;;;;;;;;;;;;;;5097256;28;19931;-79
2022/08/29 08:56:05;;;;;;;;;;;;;;;;;;5098075;28;19973;-78
2022/08/29 08:58:32;;;;;;;;;;;;;;;;;;5096114;28;19963;-76
2022/08/29 09:01:00;;;;;;;;;;;;;;;;;;5095088;28;19928;-78
2022/08/29 09:03:46;;;;;;;;;;;;;;;;;;5095236;28;19924;-77
2022/08/29 09:06:16;;;;;;;;;;;;;;;;;;5095067;28;19931;-77
2022/08/29 09:08:49;;;;;;;;;;;;;;;;;;5097842;28;19970;-79
2022/08/29 09:11:25;;;;;;;;;;;;;;;;;;5095997;28;19971;-78
2022/08/29 09:13:54;;;;;;;;;;;;;;;;;;5099112;28;19924;-79
2022/08/29 09:16:22;;;;;;;;;;;;;;;;;;5096797;28;19924;-79
2022/08/29 09:18:49;;;;;;;;;;;;;;;;;;5097233;28;19927;-79
2022/08/29 09:21:17;;;;;;;;;;;;;;;;;;5096154;28;19970;-79
2022/08/29 09:23:46;;;;;;;;;;;;;;;;;;5097161;28;19928;-79
2022/08/29 09:26:15;;;;;;;;;;;;;;;;;;5096191;28;19928;-79
2022/08/29 09:28:41;;;;;;;;;;;;;;;;;;5096328;28;20005;-76
2022/08/29 09:31:17;;;;;;;;;;;;;;;;;;5094141;28;19931;-78
2022/08/29 09:33:44;;;;;;;;;;;;;;;;;;5096123;28;20031;-79
2022/08/29 09:36:12;;;;;;;;;;;;;;;;;;5097732;28;19924;-80
2022/08/29 09:38:39;;;;;;;;;;;;;;;;;;5097921;28;19973;-79
2022/08/29 09:41:09;;;;;;;;;;;;;;;;;;5098525;28;19924;-80
2022/08/29 09:43:46;;;;;;;;;;;;;;;;;;5098880;28;19924;-81
2022/08/29 09:46:17;;;;;;;;;;;;;;;;;;5098348;28;19930;-77
2022/08/29 09:48:44;;;;;;;;;;;;;;;;;;5099661;28;19924;-77
2022/08/29 09:51:15;;;;;;;;;;;;;;;;;;5103203;28;19975;-79
2022/08/29 09:53:42;;;;;;;;;;;;;;;;;;5097724;28;20249;-80
2022/08/29 09:56:15;;;;;;;;;;;;;;;;;;5098121;28;19970;-81
2022/08/29 09:58:41;;;;;;;;;;;;;;;;;;5097546;28;20026;-80
2022/08/29 10:01:09;;;;;;;;;;;;;;;;;;5097628;28;20429;-79
2022/08/29 10:03:37;;;;;;;;;;;;;;;;;;5100263;28;19999;-79
2022/08/29 10:06:09;;;;;;;;;;;;;;;;;;5101892;28;19924;-79
2022/08/29 10:08:36;;;;;;;;;;;;;;;;;;5098999;28;20298;-80
2022/08/29 10:11:04;;;;;;;;;;;;;;;;;;5096626;28;19932;-79
2022/08/29 10:13:35;;;;;;;;;;;;;;;;;;5096003;28;19924;-77
2022/08/29 10:16:05;;;;;;;;;;;;;;;;;;5093113;28;19924;-78
2022/08/29 10:18:37;;;;;;;;;;;;;;;;;;5093529;28;20013;-78
2022/08/29 10:21:12;;;;;;;;;;;;;;;;;;5092819;28;19970;-78
2022/08/29 10:23:42;;;;;;;;;;;;;;;;;;5093548;28;19924;-77
2022/08/29 10:26:24;;;;;;;;;;;;;;;;;;5092980;28;20014;-78
2022/08/29 10:28:54;;;;;;;;;;;;;;;;;;5093604;28;19974;-78
2022/08/29 10:31:26;;;;;;;;;;;;;;;;;;5093029;28;19924;-77
2022/08/29 10:34:07;;;;;;;;;;;;;;;;;;5093494;28;20076;-77
2022/08/29 10:36:36;;;;;;;;;;;;;;;;;;5093200;28;20024;-77
2022/08/29 10:39:07;;;;;;;;;;;;;;;;;;5093198;28;19970;-77
2022/08/29 10:41:39;;;;;;;;;;;;;;;;;;5093173;28;20010;-77
2022/08/29 10:44:11;;;;;;;;;;;;;;;;;;5095077;28;20011;-79
2022/08/29 10:46:42;;;;;;;;;;;;;;;;;;5096671;28;20466;-78
2022/08/29 10:49:15;;;;;;;;;;;;;;;;;;5096823;28;19959;-77
2022/08/29 10:51:47;;;;;;;;;;;;;;;;;;5096417;28;19928;-79
2022/08/29 10:54:21;;;;;;;;;;;;;;;;;;5096974;28;19924;-80
2022/08/29 10:56:49;;;;;;;;;;;;;;;;;;5097203;28;19967;-80
2022/08/29 10:59:20;;;;;;;;;;;;;;;;;;5097207;28;19924;-81
2022/08/29 11:01:49;;;;;;;;;;;;;;;;;;5097319;28;19924;-79
2022/08/29 11:04:17;;;;;;;;;;;;;;;;;;5096854;28;19963;-79
2022/08/29 11:06:48;;;;;;;;;;;;;;;;;;5095262;28;19978;-78
2022/08/29 11:09:17;;;;;;;;;;;;;;;;;;5093070;28;20394;-78
2022/08/29 11:11:47;;;;;;;;;;;;;;;;;;5093138;28;19963;-77
2022/08/29 11:14:20;;;;;;;;;;;;;;;;;;5094709;28;19975;-78
2022/08/29 11:16:48;;;;;;;;;;;;;;;;;;5092652;28;20374;-78
2022/08/29 11:19:19;;;;;;;;;;;;;;;;;;5092353;28;20421;-77
2022/08/29 11:21:49;;;;;;;;;;;;;;;;;;5092525;28;19924;-78
2022/08/29 11:24:19;;;;;;;;;;;;;;;;;;5092684;28;19971;-78
2022/08/29 11:26:53;;;;;;;;;;;;;;;;;;5092400;28;19924;-78
2022/08/29 11:29:25;;;;;;;;;;;;;;;;;;5095126;28;20015;-79
2022/08/29 11:31:54;;;;;;;;;;;;;;;;;;5096208;28;19925;-79
2022/08/29 11:34:25;;;;;;;;;;;;;;;;;;5095821;28;19975;-79
2022/08/29 11:37:06;;;;;;;;;;;;;;;;;;5096793;28;19963;-79
2022/08/29 11:39:56;;;;;;;;;;;;;;;;;;5093130;28;19963;-79
2022/08/29 11:42:26;;;;;;;;;;;;;;;;;;5067320;28;19924;-77
2022/08/29 11:44:56;;;;;;;;;;;;;;;;;;5094677;28;19978;-77
2022/08/29 11:47:38;;;;;;;;;;;;;;;;;;5092570;28;19924;-78
2022/08/29 11:50:22;;;;;;;;;;;;;;;;;;5092049;28;20444;-77
2022/08/29 11:52:49;;;;;;;;;;;;;;;;;;5092668;28;20030;-77
2022/08/29 11:55:31;;;;;;;;;;;;;;;;;;5096829;28;19931;-81
2022/08/29 11:58:02;;;;;;;;;;;;;;;;;;5096457;28;19931;-79
2022/08/29 12:00:50;;;;;;;;;;;;;;;;;;5097324;28;19985;-81
2022/08/29 12:03:46;;;;;;;;;;;;;;;;;;5077007;28;19959;-80
2022/08/29 12:06:17;;;;;;;;;;;;;;;;;;5073386;28;19971;-78
2022/08/29 12:08:46;;;;;;;;;;;;;;;;;;5072649;28;19974;-79
2022/08/29 12:11:13;;;;;;;;;;;;;;;;;;5072466;28;19925;-78
2022/08/29 12:13:59;;;;;;;;;;;;;;;;;;5072832;28;20413;-76
2022/08/29 12:16:27;;;;;;;;;;;;;;;;;;5074759;28;19925;-77
2022/08/29 12:18:54;;;;;;;;;;;;;;;;;;5076223;28;20508;-78
2022/08/29 12:21:43;;;;;;;;;;;;;;;;;;5076577;28;19964;-80
2022/08/29 12:24:24;;;;;;;;;;;;;;;;;;5078983;28;19924;-78
2022/08/29 12:26:51;;;;;;;;;;;;;;;;;;5076408;28;19931;-78
2022/08/29 12:29:18;;;;;;;;;;;;;;;;;;5074962;28;19968;-78
2022/08/29 12:32:05;;;;;;;;;;;;;;;;;;5075138;28;19986;-77
2022/08/29 12:34:41;;;;;;;;;;;;;;;;;;5070104;28;20015;-78
2022/08/29 12:37:22;;;;;;;;;;;;;;;;;;5075585;28;19924;-78
2022/08/29 12:39:56;;;;;;;;;;;;;;;;;;5075134;28;20314;-78
2022/08/29 12:42:26;;;;;;;;;;;;;;;;;;5075325;28;19979;-78
2022/08/29 12:44:58;;;;;;;;;;;;;;;;;;5075252;28;19934;-78
2022/08/29 12:47:26;;;;;;;;;;;;;;;;;;5075208;28;19924;-77
2022/08/29 12:49:54;;;;;;;;;;;;;;;;;;5074352;28;20007;-77
2022/08/29 12:52:25;;;;;;;;;;;;;;;;;;5074705;28;20333;-78
2022/08/29 12:54:52;;;;;;;;;;;;;;;;;;5074847;28;19924;-77
2022/08/29 12:57:20;;;;;;;;;;;;;;;;;;5074717;28;19955;-78
2022/08/29 12:59:47;;;;;;;;;;;;;;;;;;5074370;28;20026;-77
2022/08/29 13:02:22;;;;;;;;;;;;;;;;;;5088818;28;20287;-77
2022/08/29 13:04:49;;;;;;;;;;;;;;;;;;5095639;28;19930;-78
2022/08/29 13:07:17;;;;;;;;;;;;;;;;;;5094754;28;20485;-78
2022/08/29 13:09:50;;;;;;;;;;;;;;;;;;5094728;28;20406;-78
2022/08/29 13:12:20;;;;;;;;;;;;;;;;;;5094808;28;20011;-78
2022/08/29 13:14:48;;;;;;;;;;;;;;;;;;5094963;28;19978;-76
2022/08/29 13:17:15;;;;;;;;;;;;;;;;;;5094943;28;19924;-78
2022/08/29 13:19:41;;;;;;;;;;;;;;;;;;5094440;28;20286;-81
2022/08/29 13:22:11;;;;;;;;;;;;;;;;;;5099213;28;19928;-80
2022/08/29 13:24:38;;;;;;;;;;;;;;;;;;5098920;28;19931;-80
2022/08/29 13:27:09;;;;;;;;;;;;;;;;;;5097361;28;20061;-80
2022/08/29 13:29:36;;;;;;;;;;;;;;;;;;5098874;28;19973;-80
2022/08/29 13:32:16;;;;;;;;;;;;;;;;;;5100459;28;20007;-81
2022/08/29 13:34:58;;;;;;;;;;;;;;;;;;5098326;28;20422;-81
2022/08/29 13:37:27;;;;;;;;;;;;;;;;;;5098588;28;19955;-79
2022/08/29 13:39:54;;;;;;;;;;;;;;;;;;5098932;28;20363;-81
2022/08/29 13:42:23;;;;;;;;;;;;;;;;;;5105549;28;19928;-79
2022/08/29 13:45:08;;;;;;;;;;;;;;;;;;5112813;28;19924;-79
2022/08/29 13:47:39;;;;;;;;;;;;;;;;;;5095033;28;19995;-79
2022/08/29 13:50:07;;;;;;;;;;;;;;;;;;5111438;28;19930;-79
2022/08/29 13:52:33;;;;;;;;;;;;;;;;;;5098770;28;19924;-80
2022/08/29 13:55:01;;;;;;;;;;;;;;;;;;5097873;28;20286;-80
2022/08/29 13:57:30;;;;;;;;;;;;;;;;;;5097668;28;19947;-80
2022/08/29 13:59:57;;;;;;;;;;;;;;;;;;5097137;28;19987;-80
2022/08/29 14:02:24;;;;;;;;;;;;;;;;;;5097678;28;19963;-79
2022/08/29 14:04:51;;;;;;;;;;;;;;;;;;5097804;28;19935;-80
2022/08/29 14:07:19;;;;;;;;;;;;;;;;;;5097190;28;20023;-80
2022/08/29 14:09:46;;;;;;;;;;;;;;;;;;5096884;28;19931;-77
2022/08/29 14:12:13;;;;;;;;;;;;;;;;;;5093736;28;19924;-78
2022/08/29 14:14:40;;;;;;;;;;;;;;;;;;5093622;28;20011;-78
2022/08/29 14:17:07;;;;;;;;;;;;;;;;;;5093872;28;19978;-78
2022/08/29 14:19:34;;;;;;;;;;;;;;;;;;5093115;28;19971;-77
2022/08/29 14:22:00;;;;;;;;;;;;;;;;;;5093639;28;19924;-77
2022/08/29 14:24:27;;;;;;;;;;;;;;;;;;5097495;28;19975;-80
2022/08/29 14:26:54;;;;;;;;;;;;;;;;;;5097405;28;19924;-81
2022/08/29 14:29:20;;;;;;;;;;;;;;;;;;5097307;28;19930;-79
2022/08/29 14:31:48;;;;;;;;;;;;;;;;;;5098098;28;19924;-78
2022/08/29 14:34:14;;;;;;;;;;;;;;;;;;5093255;28;19928;-80
2022/08/29 14:36:41;;;;;;;;;;;;;;;;;;5092992;28;20402;-78
2022/08/29 14:39:07;;;;;;;;;;;;;;;;;;5092554;28;20381;-78
2022/08/29 14:41:34;;;;;;;;;;;;;;;;;;5092918;28;20363;-78
2022/08/29 14:44:00;;;;;;;;;;;;;;;;;;5092758;28;19963;-78
2022/08/29 14:46:27;;;;;;;;;;;;;;;;;;5092901;28;20391;-79
2022/08/29 14:48:55;;;;;;;;;;;;;;;;;;5092999;28;20031;-78
2022/08/29 14:51:21;;;;;;;;;;;;;;;;;;5092609;28;20313;-78
2022/08/29 14:53:48;;;;;;;;;;;;;;;;;;5093778;28;20340;-79
2022/08/29 14:56:15;;;;;;;;;;;;;;;;;;5093925;28;19924;-78
2022/08/29 14:58:41;;;;;;;;;;;;;;;;;;5093649;28;20255;-78
2022/08/29 15:01:08;;;;;;;;;;;;;;;;;;5092922;28;19967;-79
2022/08/29 15:03:34;;;;;;;;;;;;;;;;;;5092636;28;19924;-78
2022/08/29 15:06:04;;;;;;;;;;;;;;;;;;5093183;28;19967;-77
2022/08/29 15:08:31;;;;;;;;;;;;;;;;;;5093484;28;20007;-78
2022/08/29 15:10:57;;;;;;;;;;;;;;;;;;5092658;28;19955;-77
2022/08/29 15:13:24;;;;;;;;;;;;;;;;;;5092490;28;20394;-78
2022/08/29 15:15:50;;;;;;;;;;;;;;;;;;5092755;28;20015;-78
2022/08/29 15:18:19;;;;;;;;;;;;;;;;;;5092641;28;20023;-78
2022/08/29 15:20:46;;;;;;;;;;;;;;;;;;5096817;28;20424;-81
2022/08/29 15:23:13;;;;;;;;;;;;;;;;;;5096560;28;19967;-79
2022/08/29 15:25:40;;;;;;;;;;;;;;;;;;5094269;28;19934;-78
2022/08/29 15:28:07;;;;;;;;;;;;;;;;;;5092705;28;20027;-79
2022/08/29 15:30:34;;;;;;;;;;;;;;;;;;5092140;28;19970;-78
2022/08/29 15:33:00;;;;;;;;;;;;;;;;;;5092514;28;20036;-78
2022/08/29 15:35:27;;;;;;;;;;;;;;;;;;5092913;28;20022;-79
2022/08/29 15:37:53;;;;;;;;;;;;;;;;;;5096268;28;19984;-79
2022/08/29 15:40:21;;;;;;;;;;;;;;;;;;5095637;28;19924;-80
2022/08/29 15:42:47;;;;;;;;;;;;;;;;;;5097163;28;20007;-79
2022/08/29 15:45:14;;;;;;;;;;;;;;;;;;5096603;28;20011;-81
2022/08/29 15:47:41;;;;;;;;;;;;;;;;;;5097179;28;20018;-81
2022/08/29 15:50:08;;;;;;;;;;;;;;;;;;5095672;28;19930;-80
2022/08/29 15:52:35;;;;;;;;;;;;;;;;;;5099151;28;19987;-78
2022/08/29 15:55:02;;;;;;;;;;;;;;;;;;5096653;28;20162;-78
2022/08/29 15:57:31;;;;;;;;;;;;;;;;;;5099179;28;19978;-80
2022/08/29 15:59:58;;;;;;;;;;;;;;;;;;5100684;28;20002;-80
2022/08/29 16:02:25;;;;;;;;;;;;;;;;;;5100600;28;19924;-80
2022/08/29 16:04:55;;;;;;;;;;;;;;;;;;5099784;28;19923;-78
2022/08/29 16:07:21;;;;;;;;;;;;;;;;;;5100605;28;19984;-78
2022/08/29 16:09:48;;;;;;;;;;;;;;;;;;5100616;28;19964;-78
2022/08/29 16:12:15;;;;;;;;;;;;;;;;;;5100568;28;20018;-80
2022/08/29 16:14:43;;;;;;;;;;;;;;;;;;5101314;28;19962;-80
2022/08/29 16:17:09;;;;;;;;;;;;;;;;;;5100770;28;19971;-80
2022/08/29 16:19:36;;;;;;;;;;;;;;;;;;5099815;28;19924;-79
2022/08/29 16:22:02;;;;;;;;;;;;;;;;;;5099826;28;19984;-78
2022/08/29 16:24:30;;;;;;;;;;;;;;;;;;5100431;28;20023;-81
2022/08/29 16:26:57;;;;;;;;;;;;;;;;;;5097143;28;20450;-79
2022/08/29 16:29:23;;;;;;;;;;;;;;;;;;5096498;28;19935;-78
2022/08/29 16:31:52;;;;;;;;;;;;;;;;;;5096831;28;20023;-78
2022/08/29 16:34:19;;;;;;;;;;;;;;;;;;5100230;28;19924;-79
2022/08/29 16:36:46;;;;;;;;;;;;;;;;;;5098497;28;19924;-79
2022/08/29 16:39:12;;;;;;;;;;;;;;;;;;5104896;28;19928;-78
2022/08/29 16:41:39;;;;;;;;;;;;;;;;;;5096131;28;20593;-78
2022/08/29 16:44:07;;;;;;;;;;;;;;;;;;5097756;28;19927;-78
2022/08/29 16:46:33;;;;;;;;;;;;;;;;;;5099781;28;20413;-78
2022/08/29 16:49:01;;;;;;;;;;;;;;;;;;5099806;28;20022;-78
2022/08/29 16:51:28;;;;;;;;;;;;;;;;;;5095595;28;19931;-78
2022/08/29 16:53:57;;;;;;;;;;;;;;;;;;5102685;28;20036;-79
2022/08/29 16:56:23;;;;;;;;;;;;;;;;;;5109319;28;20416;-78